Time;durP1;ratioP1;P1;durP2;ratioP2;P2;SDS_P1;SDS_P2;PMS_P1;PMS_P2;Temp;Humidity;BMP_temperature;BMP_pressure;BME280_temperature;BME280_humidity;BME280_pressure;Samples;Min_cycle;Max_cycle;Signal;HPM_P1;HPM_P2
2022/03/20 00:00:38;;;;;;;2.90;2.80;;;8.40;99.90;;;;;;5015770;28;20205;-66
2022/03/20 00:03:07;;;;;;;3.00;2.90;;;8.40;99.90;;;;;;5013950;28;20312;-65
2022/03/20 00:05:38;;;;;;;3.07;2.87;;;8.30;99.90;;;;;;5014968;28;20193;-64
2022/03/20 00:08:08;;;;;;;3.20;3.00;;;8.10;99.90;;;;;;5014920;28;20332;-67
2022/03/20 00:10:35;;;;;;;2.97;2.77;;;8.00;99.90;;;;;;5021282;28;20210;-65
2022/03/20 00:13:03;;;;;;;2.78;2.67;;;7.80;99.90;;;;;;5028555;28;20249;-66
2022/03/20 00:15:31;;;;;;;3.17;3.00;;;7.80;99.90;;;;;;5014623;28;20206;-66
2022/03/20 00:17:58;;;;;;;2.80;2.70;;;7.90;99.90;;;;;;5015288;28;20292;-65
2022/03/20 00:20:25;;;;;;;2.80;2.70;;;7.80;99.90;;;;;;5021255;28;20334;-69
2022/03/20 00:22:52;;;;;;;2.97;2.77;;;7.70;99.90;;;;;;5025867;28;20272;-67
2022/03/20 00:25:19;;;;;;;2.90;2.70;;;7.70;99.90;;;;;;5019413;28;20611;-63
2022/03/20 00:27:46;;;;;;;3.30;3.10;;;7.80;99.90;;;;;;5015026;28;20248;-66
2022/03/20 00:30:13;;;;;;;2.97;2.88;;;7.80;99.90;;;;;;5018747;28;20259;-66
2022/03/20 00:32:41;;;;;;;3.07;2.87;;;7.60;99.90;;;;;;5031544;28;20217;-65
2022/03/20 00:35:08;;;;;;;3.37;3.17;;;7.70;99.90;;;;;;5027737;28;20244;-66
2022/03/20 00:37:35;;;;;;;2.88;2.78;;;7.60;99.90;;;;;;5024520;28;20272;-66
2022/03/20 00:40:02;;;;;;;3.10;2.90;;;7.70;99.90;;;;;;5029402;28;20761;-65
2022/03/20 00:42:29;;;;;;;3.07;2.97;;;7.90;99.90;;;;;;5017933;28;20316;-65
2022/03/20 00:44:56;;;;;;;2.97;2.78;;;7.90;99.90;;;;;;5018661;28;20312;-65
2022/03/20 00:47:23;;;;;;;3.28;3.08;;;8.00;99.90;;;;;;5017537;28;20233;-65
2022/03/20 00:49:51;;;;;;;3.00;2.90;;;7.80;99.90;;;;;;5014235;28;20215;-64
2022/03/20 00:52:18;;;;;;;3.22;3.03;;;7.90;99.90;;;;;;5017181;28;20221;-64
2022/03/20 00:54:45;;;;;;;3.63;3.43;;;7.90;99.90;;;;;;5025117;28;20228;-67
2022/03/20 00:57:12;;;;;;;3.23;3.03;;;7.80;99.90;;;;;;5015917;28;20240;-64
2022/03/20 00:59:39;;;;;;;3.28;3.10;;;7.70;99.90;;;;;;5018083;28;20294;-65
2022/03/20 01:02:07;;;;;;;3.30;3.10;;;7.70;99.90;;;;;;5013458;28;20707;-64
2022/03/20 01:04:34;;;;;;;3.20;3.00;;;7.50;99.90;;;;;;5013447;28;20271;-63
2022/03/20 01:07:03;;;;;;;3.40;3.20;;;7.50;99.90;;;;;;5014200;28;20292;-65
2022/03/20 01:09:30;;;;;;;3.57;3.37;;;7.40;99.90;;;;;;5023318;28;20231;-65
2022/03/20 01:11:59;;;;;;;2.90;2.80;;;7.40;99.90;;;;;;5018955;28;20276;-65
2022/03/20 01:14:27;;;;;;;2.67;2.58;;;7.50;99.90;;;;;;5015670;28;20304;-66
2022/03/20 01:16:55;;;;;;;3.17;2.97;;;7.70;99.90;;;;;;5013259;28;20339;-64
2022/03/20 01:19:23;;;;;;;3.53;3.33;;;7.60;99.90;;;;;;5013698;28;20232;-65
2022/03/20 01:21:50;;;;;;;3.65;3.45;;;7.40;99.90;;;;;;5004186;28;20237;-65
2022/03/20 01:24:18;;;;;;;3.28;3.08;;;7.20;99.90;;;;;;5001300;28;20234;-65
2022/03/20 01:26:45;;;;;;;3.30;3.10;;;7.10;99.90;;;;;;5012396;28;20213;-64
2022/03/20 01:29:12;;;;;;;3.05;2.95;;;7.20;99.90;;;;;;5013274;28;20225;-64
2022/03/20 01:31:39;;;;;;;3.40;3.20;;;7.20;99.90;;;;;;5012717;28;20221;-65
2022/03/20 01:34:07;;;;;;;3.10;3.00;;;7.30;99.90;;;;;;5013337;28;20287;-64
2022/03/20 01:36:34;;;;;;;3.03;2.88;;;7.40;99.90;;;;;;5013272;28;20205;-63
2022/03/20 01:39:01;;;;;;;3.55;3.35;;;7.50;99.90;;;;;;5012866;28;20248;-65
2022/03/20 01:41:29;;;;;;;3.50;3.30;;;7.60;99.90;;;;;;5013182;28;20312;-64
2022/03/20 01:43:59;;;;;;;4.03;3.73;;;7.80;99.90;;;;;;5012006;28;20289;-65
2022/03/20 01:46:26;;;;;;;4.17;3.87;;;7.90;99.90;;;;;;5013095;28;20205;-63
2022/03/20 01:48:54;;;;;;;3.85;3.65;;;8.10;99.90;;;;;;5012545;28;20248;-65
2022/03/20 01:52:10;;;;;;;3.93;3.73;;;8.20;99.90;;;;;;5013031;28;20754;-65
2022/03/20 01:54:11;;;;;;;3.80;3.60;;;8.40;99.90;;;;;;5012554;28;20263;-66
2022/03/20 01:56:45;;;;;;;3.87;3.67;;;8.40;99.90;;;;;;5019836;28;20366;-64
2022/03/20 01:59:12;;;;;;;3.60;3.40;;;8.50;99.90;;;;;;5034131;28;20291;-64
2022/03/20 02:01:39;;;;;;;3.55;3.35;;;8.60;99.90;;;;;;5028202;28;20312;-65
2022/03/20 02:04:06;;;;;;;3.70;3.50;;;8.60;99.90;;;;;;5012933;28;20293;-64
2022/03/20 02:06:33;;;;;;;4.53;4.25;;;8.70;99.90;;;;;;5013084;28;20589;-65
2022/03/20 02:09:01;;;;;;;4.33;4.10;;;8.80;99.90;;;;;;5028960;28;20243;-65
2022/03/20 02:11:30;;;;;;;4.15;3.85;;;8.80;99.90;;;;;;5027943;28;20315;-65
2022/03/20 02:13:58;;;;;;;4.10;3.90;;;8.80;99.90;;;;;;5013356;28;20288;-64
2022/03/20 02:16:25;;;;;;;4.10;3.90;;;8.80;99.90;;;;;;5012771;28;20237;-68
2022/03/20 02:18:52;;;;;;;3.90;3.67;;;8.90;99.90;;;;;;5012513;28;20248;-66
2022/03/20 02:21:39;;;;;;;3.83;3.63;;;8.80;99.90;;;;;;5012359;28;20868;-65
2022/03/20 02:24:21;;;;;;;3.42;3.22;;;8.90;99.90;;;;;;5011961;28;20210;-64
2022/03/20 02:26:48;;;;;;;3.67;3.47;;;8.90;99.90;;;;;;5011719;28;20292;-62
2022/03/20 02:29:15;;;;;;;3.45;3.25;;;8.90;99.90;;;;;;5012370;28;20217;-67
2022/03/20 02:31:43;;;;;;;4.13;3.90;;;8.70;99.90;;;;;;5009682;28;20235;-64
2022/03/20 02:34:10;;;;;;;3.67;3.47;;;8.50;99.90;;;;;;5011728;28;20201;-65
2022/03/20 02:36:36;;;;;;;3.60;3.40;;;8.20;99.90;;;;;;5011844;28;20225;-64
2022/03/20 02:39:05;;;;;;;3.80;3.60;;;8.00;99.90;;;;;;5012018;28;20236;-65
2022/03/20 02:41:32;;;;;;;3.80;3.60;;;8.00;99.90;;;;;;5012468;28;20279;-69
2022/03/20 02:44:03;;;;;;;4.35;4.15;;;7.90;99.90;;;;;;5011587;28;20233;-67
2022/03/20 02:46:31;;;;;;;3.90;3.70;;;7.70;99.90;;;;;;5011952;28;20272;-63
2022/03/20 02:49:00;;;;;;;3.75;3.55;;;7.30;99.90;;;;;;5012574;28;20228;-67
2022/03/20 02:51:26;;;;;;;3.42;3.22;;;7.20;99.90;;;;;;5012087;28;20708;-63
2022/03/20 02:53:53;;;;;;;3.92;3.63;;;7.20;99.90;;;;;;5011039;28;20237;-64
2022/03/20 02:56:22;;;;;;;3.80;3.60;;;7.30;99.90;;;;;;5011621;28;20292;-66
2022/03/20 02:58:49;;;;;;;3.50;3.30;;;7.40;99.90;;;;;;5011640;28;20697;-64
2022/03/20 03:01:17;;;;;;;3.08;2.97;;;7.40;99.90;;;;;;5012280;28;20320;-66
2022/03/20 03:03:45;;;;;;;3.73;3.53;;;7.40;99.90;;;;;;5012130;28;20228;-65
2022/03/20 03:06:12;;;;;;;4.10;3.90;;;7.40;99.90;;;;;;5013322;28;20209;-65
2022/03/20 03:11:25;;;;;;;3.92;3.72;;;7.30;99.90;;;;;;5012521;28;20709;-65
2022/03/20 03:13:52;;;;;;;3.80;3.60;;;7.20;99.90;;;;;;5011040;28;20288;-66
2022/03/20 03:16:19;;;;;;;3.60;3.40;;;7.20;99.90;;;;;;5012493;28;20216;-65
2022/03/20 03:18:47;;;;;;;3.47;3.28;;;7.10;99.90;;;;;;5012217;28;20205;-64
2022/03/20 03:21:15;;;;;;;3.67;3.47;;;7.10;99.90;;;;;;5010245;28;20323;-63
2022/03/20 03:23:42;;;;;;;4.00;3.70;;;7.10;99.90;;;;;;5010755;28;20316;-66
2022/03/20 03:26:09;;;;;;;3.55;3.35;;;7.20;99.90;;;;;;5011985;28;20205;-63
2022/03/20 03:28:38;;;;;;;4.33;4.13;;;7.40;99.90;;;;;;5011447;28;20255;-65
2022/03/20 03:31:06;;;;;;;4.13;3.92;;;7.40;99.90;;;;;;5013122;28;20292;-64
2022/03/20 03:33:34;;;;;;;3.67;3.47;;;7.20;99.90;;;;;;5014384;28;20292;-64
2022/03/20 03:36:01;;;;;;;3.60;3.40;;;7.20;99.90;;;;;;5014200;28;20296;-65
2022/03/20 03:38:31;;;;;;;4.00;3.80;;;7.20;99.90;;;;;;5013973;28;20631;-64
2022/03/20 03:40:58;;;;;;;3.60;3.40;;;7.20;99.90;;;;;;5014229;28;20209;-65
2022/03/20 03:43:26;;;;;;;3.60;3.40;;;7.10;99.90;;;;;;5014277;28;20229;-65
2022/03/20 03:45:56;;;;;;;3.30;3.10;;;7.20;99.90;;;;;;5014187;28;20209;-63
2022/03/20 03:48:23;;;;;;;3.65;3.40;;;7.30;99.90;;;;;;5014839;28;20264;-66
2022/03/20 03:50:52;;;;;;;3.90;3.70;;;7.30;99.90;;;;;;5014206;28;20296;-66
2022/03/20 03:53:20;;;;;;;3.63;3.43;;;7.40;99.90;;;;;;5013400;28;20266;-65
2022/03/20 03:55:46;;;;;;;3.87;3.57;;;7.50;99.90;;;;;;5016772;28;20213;-65
2022/03/20 03:58:14;;;;;;;3.70;3.50;;;7.60;99.90;;;;;;5020075;28;20206;-65
2022/03/20 04:00:43;;;;;;;4.10;3.90;;;7.70;99.90;;;;;;5017147;28;20228;-63
2022/03/20 04:03:11;;;;;;;4.10;3.90;;;7.70;99.90;;;;;;5013150;28;20228;-66
2022/03/20 04:05:38;;;;;;;3.90;3.70;;;7.80;99.90;;;;;;5011540;28;20652;-66
2022/03/20 04:08:07;;;;;;;4.07;3.77;;;7.80;99.90;;;;;;5012809;28;20641;-65
2022/03/20 04:10:34;;;;;;;4.00;3.80;;;7.80;99.90;;;;;;5012621;28;20288;-65
2022/03/20 04:13:01;;;;;;;4.00;3.80;;;7.80;99.90;;;;;;5012168;28;20257;-64
2022/03/20 04:15:30;;;;;;;4.53;4.30;;;7.70;99.90;;;;;;5017006;28;20202;-64
2022/03/20 04:17:58;;;;;;;4.70;4.40;;;7.30;99.90;;;;;;5023161;28;20236;-67
2022/03/20 04:20:26;;;;;;;4.33;4.13;;;6.80;99.90;;;;;;5025755;28;20228;-66
2022/03/20 04:25:41;;;;;;;4.90;4.60;;;6.40;99.90;;;;;;5011469;28;20255;-63
2022/03/20 04:28:08;;;;;;;3.95;3.75;;;6.10;99.90;;;;;;5014577;28;20233;-63
2022/03/20 04:30:36;;;;;;;4.30;4.10;;;6.10;99.90;;;;;;5019684;28;20201;-65
2022/03/20 04:33:04;;;;;;;4.20;4.00;;;6.00;99.90;;;;;;5016144;28;20791;-66
2022/03/20 04:35:32;;;;;;;4.30;4.10;;;6.10;99.90;;;;;;5014727;28;20244;-64
2022/03/20 04:37:59;;;;;;;4.10;3.90;;;6.10;99.90;;;;;;5014104;28;20714;-63
2022/03/20 04:40:26;;;;;;;3.97;3.78;;;6.10;99.90;;;;;;5014644;28;20204;-65
2022/03/20 04:42:52;;;;;;;3.63;3.43;;;6.20;99.90;;;;;;5013684;28;20222;-64
2022/03/20 04:45:19;;;;;;;4.13;3.92;;;6.40;99.90;;;;;;5014012;28;20296;-65
2022/03/20 04:58:46;;;;;;;4.40;4.20;;;6.50;99.90;;;;;;5013816;28;20200;-64
2022/03/20 05:01:14;;;;;;;4.18;3.97;;;6.40;99.90;;;;;;5014463;28;20225;-66
2022/03/20 05:03:40;;;;;;;3.87;3.67;;;6.30;99.90;;;;;;5013557;28;20253;-65
2022/03/20 05:06:09;;;;;;;4.03;3.83;;;6.20;99.90;;;;;;5013996;28;20288;-63
2022/03/20 05:08:36;;;;;;;4.90;4.60;;;6.20;99.90;;;;;;5014263;28;20275;-64
2022/03/20 05:13:47;;;;;;;4.50;4.30;;;6.10;99.90;;;;;;5005561;28;20562;-64
2022/03/20 05:16:14;;;;;;;4.25;4.05;;;6.10;99.90;;;;;;5014360;28;20293;-65
2022/03/20 05:18:41;;;;;;;4.30;4.10;;;6.20;99.90;;;;;;5018415;28;20212;-64
2022/03/20 05:23:47;;;;;;;4.82;4.53;;;6.30;99.90;;;;;;5016183;28;20274;-68
2022/03/20 05:26:13;;;;;;;4.40;4.20;;;6.30;99.90;;;;;;5026548;28;20202;-68
2022/03/20 05:28:40;;;;;;;4.27;4.00;;;6.30;99.90;;;;;;5042500;28;20215;-68
2022/03/20 05:31:07;;;;;;;3.90;3.70;;;6.50;99.90;;;;;;5041026;28;20197;-69
2022/03/20 05:33:34;;;;;;;4.37;4.17;;;6.50;99.90;;;;;;5042528;28;20200;-68
2022/03/20 05:36:02;;;;;;;4.45;4.22;;;6.60;99.90;;;;;;5027474;28;20581;-68
2022/03/20 05:38:29;;;;;;;4.20;4.00;;;6.70;99.90;;;;;;5017630;28;20260;-70
2022/03/20 05:43:38;;;;;;;4.07;3.87;;;6.90;99.90;;;;;;5016812;28;20769;-68
2022/03/20 05:46:05;;;;;;;4.17;3.97;;;6.90;99.90;;;;;;5017585;28;20292;-69
2022/03/20 05:48:32;;;;;;;4.20;4.00;;;6.90;99.90;;;;;;5017485;28;20236;-69
2022/03/20 05:50:59;;;;;;;4.27;4.07;;;7.00;99.90;;;;;;5017140;28;20209;-69
2022/03/20 05:53:26;;;;;;;5.07;4.77;;;7.00;99.90;;;;;;5015524;28;20221;-69
2022/03/20 05:58:39;;;;;;;4.50;4.30;;;6.80;99.90;;;;;;5016821;28;20317;-70
2022/03/20 06:01:05;;;;;;;4.17;3.97;;;6.60;99.90;;;;;;5017066;28;20241;-68
2022/03/20 06:03:32;;;;;;;4.87;4.57;;;6.40;99.90;;;;;;5016236;28;20323;-68
2022/03/20 06:06:00;;;;;;;4.55;4.35;;;6.40;99.90;;;;;;5017076;28;20241;-67
2022/03/20 06:08:27;;;;;;;4.95;4.65;;;6.40;99.90;;;;;;5016636;28;20239;-67
2022/03/20 06:10:56;;;;;;;4.60;4.40;;;6.40;99.90;;;;;;5016129;28;20202;-66
2022/03/20 06:13:23;;;;;;;4.50;4.20;;;6.50;99.90;;;;;;5013891;28;20223;-67
2022/03/20 06:15:51;;;;;;;5.30;5.00;;;6.50;99.90;;;;;;5015512;28;20205;-67
2022/03/20 06:18:18;;;;;;;4.47;4.27;;;6.40;99.90;;;;;;5015555;28;20253;-68
2022/03/20 06:20:45;;;;;;;5.05;4.75;;;6.30;99.90;;;;;;5015881;28;20284;-68
2022/03/20 06:23:12;;;;;;;5.13;4.83;;;6.40;99.90;;;;;;5015029;28;20232;-69
2022/03/20 06:25:39;;;;;;;4.70;4.40;;;6.50;99.90;;;;;;5012769;28;20236;-69
2022/03/20 06:28:06;;;;;;;4.43;4.23;;;6.60;99.90;;;;;;5013333;28;20237;-69
2022/03/20 06:30:34;;;;;;;4.77;4.57;;;6.70;99.90;;;;;;5012815;28;20201;-68
2022/03/20 06:33:03;;;;;;;4.67;4.40;;;6.80;99.90;;;;;;5012757;28;20699;-70
2022/03/20 06:35:30;;;;;;;5.00;4.70;;;6.80;99.90;;;;;;5026852;28;20264;-68
2022/03/20 06:37:56;;;;;;;4.50;4.27;;;6.80;99.90;;;;;;5018397;28;20236;-69
2022/03/20 06:40:23;;;;;;;4.67;4.33;;;6.90;99.90;;;;;;5014441;28;20209;-68
2022/03/20 06:42:50;;;;;;;4.83;4.53;;;7.00;99.90;;;;;;5013440;28;20331;-68
2022/03/20 06:45:19;;;;;;;5.30;5.00;;;6.90;99.90;;;;;;5013368;28;20221;-68
2022/03/20 06:47:46;;;;;;;5.57;5.17;;;6.90;99.90;;;;;;5014996;28;20217;-68
2022/03/20 06:50:15;;;;;;;5.70;5.40;;;6.90;99.90;;;;;;5014637;28;20213;-68
2022/03/20 06:52:42;;;;;;;5.53;5.23;;;7.00;99.90;;;;;;5012027;28;20401;-68
2022/03/20 06:55:12;;;;;;;5.00;4.70;;;7.10;99.90;;;;;;5013391;28;20211;-68
2022/03/20 06:57:42;;;;;;;5.23;4.93;;;7.10;99.90;;;;;;5014026;28;20205;-68
2022/03/20 07:00:11;;;;;;;5.10;4.80;;;7.20;99.90;;;;;;5014980;28;20205;-67
2022/03/20 07:02:38;;;;;;;5.03;4.73;;;7.20;99.90;;;;;;5012874;28;20275;-68
2022/03/20 07:05:05;;;;;;;5.00;4.70;;;7.30;99.90;;;;;;5013208;28;20225;-70
2022/03/20 07:07:34;;;;;;;4.38;4.18;;;7.20;99.90;;;;;;5013377;28;20767;-68
2022/03/20 07:10:01;;;;;;;5.20;4.90;;;7.30;99.90;;;;;;4994201;28;20206;-67
2022/03/20 07:12:28;;;;;;;5.32;5.03;;;7.30;99.90;;;;;;5006857;28;20226;-68
2022/03/20 07:14:54;;;;;;;5.10;4.80;;;7.30;99.90;;;;;;5014735;28;20203;-69
2022/03/20 07:17:24;;;;;;;5.30;5.00;;;7.50;99.90;;;;;;5014716;28;20671;-68
2022/03/20 07:19:51;;;;;;;5.47;5.17;;;7.50;99.90;;;;;;5015239;28;20228;-68
2022/03/20 07:22:19;;;;;;;5.60;5.30;;;7.50;99.90;;;;;;5012868;28;20232;-68
2022/03/20 07:24:48;;;;;;;4.83;4.63;;;7.50;99.90;;;;;;5010779;28;20260;-69
2022/03/20 07:29:59;;;;;;;5.60;5.30;;;7.80;99.90;;;;;;5012814;28;20204;-69
2022/03/20 07:32:26;;;;;;;5.53;5.23;;;7.80;99.90;;;;;;5012777;28;20236;-70
2022/03/20 07:34:53;;;;;;;5.28;4.97;;;7.90;99.90;;;;;;5013292;28;20311;-67
2022/03/20 07:37:21;;;;;;;5.87;5.47;;;8.00;99.90;;;;;;5006888;28;20559;-68
2022/03/20 07:39:51;;;;;;;4.93;4.63;;;8.10;99.90;;;;;;5012962;28;20206;-67
2022/03/20 07:42:19;;;;;;;5.33;5.03;;;8.30;99.90;;;;;;5014251;28;20255;-69
2022/03/20 07:44:46;;;;;;;5.70;5.40;;;8.50;99.90;;;;;;5013169;28;20754;-68
2022/03/20 07:47:18;;;;;;;5.87;5.57;;;8.60;99.90;;;;;;5012559;28;20209;-68
2022/03/20 07:49:45;;;;;;;5.67;5.37;;;8.70;99.90;;;;;;5012361;28;20213;-69
2022/03/20 07:52:12;;;;;;;5.72;5.43;;;8.90;99.90;;;;;;5011832;28;20244;-68
2022/03/20 07:54:39;;;;;;;5.60;5.25;;;8.80;99.90;;;;;;5012054;28;20260;-68
2022/03/20 07:57:08;;;;;;;5.43;5.13;;;8.90;99.90;;;;;;5014759;28;20296;-69
2022/03/20 07:59:35;;;;;;;5.40;5.10;;;9.00;99.90;;;;;;5016900;28;20217;-70
2022/03/20 08:02:02;;;;;;;5.65;5.35;;;9.10;99.90;;;;;;5013083;28;20229;-69
2022/03/20 08:04:29;;;;;;;5.25;4.95;;;9.10;99.90;;;;;;5016542;28;20232;-68
2022/03/20 08:06:56;;;;;;;5.20;4.90;;;8.70;99.90;;;;;;5016834;28;20201;-68
2022/03/20 08:09:23;;;;;;;5.10;4.90;;;8.50;99.90;;;;;;5016820;28;20228;-68
2022/03/20 08:11:49;;;;;;;5.60;5.30;;;8.60;99.90;;;;;;5016613;28;20225;-67
2022/03/20 08:14:18;;;;;;;5.30;5.00;;;8.60;99.90;;;;;;5016956;28;20233;-68
2022/03/20 08:16:44;;;;;;;5.88;5.53;;;8.50;99.90;;;;;;5026941;28;20232;-70
2022/03/20 08:19:15;;;;;;;5.10;4.80;;;8.10;99.90;;;;;;5036340;28;20299;-68
2022/03/20 08:21:42;;;;;;;5.43;5.13;;;8.00;99.90;;;;;;5035871;28;20243;-69
2022/03/20 08:24:12;;;;;;;5.00;4.70;;;8.10;99.90;;;;;;5036133;28;20225;-69
2022/03/20 08:26:40;;;;;;;5.37;5.07;;;8.10;99.90;;;;;;5020847;28;20205;-68
2022/03/20 08:29:08;;;;;;;4.77;4.57;;;8.10;99.90;;;;;;5026388;28;20205;-69
2022/03/20 08:31:36;;;;;;;5.20;4.90;;;8.10;99.90;;;;;;5027019;28;20750;-69
2022/03/20 08:34:04;;;;;;;5.60;5.30;;;8.20;99.90;;;;;;5008722;28;20668;-67
2022/03/20 08:36:31;;;;;;;4.97;4.70;;;8.20;99.90;;;;;;5016456;28;20213;-68
2022/03/20 08:38:58;;;;;;;5.50;5.20;;;8.30;99.90;;;;;;4996771;28;20233;-69
2022/03/20 08:41:25;;;;;;;5.00;4.70;;;8.40;99.90;;;;;;5016286;28;20205;-68
2022/03/20 08:43:51;;;;;;;5.13;4.83;;;8.50;99.90;;;;;;5012695;28;20289;-69
2022/03/20 08:46:18;;;;;;;5.18;4.88;;;8.50;99.90;;;;;;5007246;28;20233;-68
2022/03/20 08:48:47;;;;;;;5.23;4.93;;;8.60;99.90;;;;;;5015886;28;20280;-68
2022/03/20 08:51:13;;;;;;;5.40;5.10;;;8.70;99.90;;;;;;5015481;28;20220;-68
2022/03/20 08:53:40;;;;;;;5.93;5.63;;;8.80;99.90;;;;;;5015440;28;20235;-69
2022/03/20 08:56:07;;;;;;;6.10;5.70;;;8.90;99.90;;;;;;5015691;28;20573;-69
2022/03/20 08:58:34;;;;;;;6.60;6.20;;;8.90;99.90;;;;;;5015478;28;20293;-70
2022/03/20 09:01:02;;;;;;;6.55;6.15;;;9.00;99.90;;;;;;5029548;28;20284;-68
2022/03/20 09:03:29;;;;;;;6.67;6.27;;;9.00;99.90;;;;;;5028972;28;20279;-69
2022/03/20 09:05:58;;;;;;;6.53;6.13;;;9.10;99.90;;;;;;5029155;28;20292;-69
2022/03/20 09:08:25;;;;;;;6.70;6.30;;;9.20;99.90;;;;;;5025253;28;20284;-69
2022/03/20 09:10:52;;;;;;;6.90;6.50;;;9.30;99.90;;;;;;5030915;28;20201;-69
2022/03/20 09:13:19;;;;;;;6.43;6.13;;;9.40;99.90;;;;;;5031320;28;20224;-69
2022/03/20 09:18:58;;;;;;;5.53;5.23;;;9.50;99.90;;;;;;5027210;28;20442;-68
2022/03/20 09:21:19;;;;;;;5.03;4.77;;;9.80;99.90;;;;;;5013970;28;20567;-69
2022/03/20 09:23:48;;;;;;;5.03;4.73;;;10.10;99.90;;;;;;5014101;28;20657;-69
2022/03/20 09:26:15;;;;;;;4.97;4.67;;;10.10;99.90;;;;;;5013961;28;20690;-68
2022/03/20 09:28:42;;;;;;;5.50;5.20;;;10.20;99.90;;;;;;5014886;28;20237;-68
2022/03/20 09:31:09;;;;;;;5.30;5.00;;;10.30;99.90;;;;;;5025847;28;20243;-67
2022/03/20 09:33:36;;;;;;;4.40;4.20;;;10.50;99.90;;;;;;5027171;28;20208;-68
2022/03/20 09:36:03;;;;;;;4.33;4.13;;;10.60;99.90;;;;;;5026618;28;20197;-69
2022/03/20 09:38:31;;;;;;;4.47;4.27;;;10.80;99.90;;;;;;5024474;28;20204;-68
2022/03/20 09:41:00;;;;;;;4.37;4.17;;;11.00;99.90;;;;;;5029346;28;20289;-68
2022/03/20 09:43:27;;;;;;;4.07;3.88;;;11.10;99.90;;;;;;5029297;28;20273;-67
2022/03/20 09:45:54;;;;;;;4.53;4.33;;;11.20;99.90;;;;;;5024432;28;20221;-67
2022/03/20 09:48:22;;;;;;;4.90;4.60;;;11.50;99.90;;;;;;5021095;28;20288;-67
2022/03/20 09:50:50;;;;;;;4.60;4.30;;;11.70;99.90;;;;;;5027868;28;20203;-68
2022/03/20 09:53:17;;;;;;;3.93;3.73;;;12.00;99.90;;;;;;5029074;28;20248;-67
2022/03/20 09:55:46;;;;;;;3.70;3.50;;;12.50;99.90;;;;;;5027284;28;20299;-69
2022/03/20 09:58:13;;;;;;;4.32;4.13;;;12.90;99.90;;;;;;5022994;28;20662;-69
2022/03/20 10:00:40;;;;;;;4.03;3.83;;;13.30;99.90;;;;;;5027776;28;20200;-68
2022/03/20 10:03:17;;;;;;;3.97;3.77;;;13.60;99.90;;;;;;5032540;28;20217;-67
2022/03/20 10:05:44;;;;;;;4.13;3.85;;;13.90;99.90;;;;;;5027266;28;20288;-68
2022/03/20 10:08:17;;;;;;;4.10;3.90;;;14.20;99.90;;;;;;5025120;28;20205;-68
2022/03/20 10:10:47;;;;;;;4.10;3.80;;;14.40;99.90;;;;;;5020958;28;20218;-68
2022/03/20 10:13:15;;;;;;;3.92;3.72;;;14.40;99.90;;;;;;5024759;28;20331;-65
2022/03/20 10:15:43;;;;;;;4.10;3.80;;;14.30;99.90;;;;;;5027146;28;20287;-67
2022/03/20 10:18:14;;;;;;;3.72;3.53;;;14.50;99.90;;;;;;5030090;28;20196;-67
2022/03/20 10:20:44;;;;;;;4.03;3.83;;;14.60;99.90;;;;;;5029151;28;20193;-69
2022/03/20 10:23:32;;;;;;;3.50;3.30;;;14.80;99.90;;;;;;5035309;28;20268;-67
2022/03/20 10:26:03;;;;;;;3.40;3.20;;;15.00;99.90;;;;;;5030678;28;20241;-67
2022/03/20 10:28:36;;;;;;;3.33;3.10;;;15.10;99.90;;;;;;5038513;28;20193;-68
2022/03/20 10:31:05;;;;;;;3.50;3.20;;;15.10;99.90;;;;;;5049929;28;20232;-69
2022/03/20 10:33:33;;;;;;;2.97;2.77;;;15.20;99.90;;;;;;5040551;28;20500;-68
2022/03/20 10:36:11;;;;;;;2.72;2.55;;;15.40;99.90;;;;;;5032752;28;20213;-67
2022/03/20 10:38:38;;;;;;;3.10;2.90;;;15.60;99.90;;;;;;5031241;28;20196;-67
2022/03/20 10:41:18;;;;;;;2.63;2.45;;;15.80;99.90;;;;;;5020698;28;20228;-68
2022/03/20 10:43:46;;;;;;;2.53;2.42;;;16.00;99.90;;;;;;5021615;28;20279;-66
2022/03/20 10:46:19;;;;;;;2.40;2.30;;;16.20;99.90;;;;;;5005681;28;20733;-66
2022/03/20 10:48:48;;;;;;;2.33;2.23;;;16.30;99.90;;;;;;5014398;28;20190;-68
2022/03/20 10:51:15;;;;;;;2.60;2.40;;;16.60;99.90;;;;;;5014298;28;20235;-67
2022/03/20 10:53:53;;;;;;;2.40;2.30;;;16.70;99.90;;;;;;5029528;28;20228;-68
2022/03/20 10:56:22;;;;;;;2.25;2.15;;;16.70;99.90;;;;;;5028246;28;20578;-67
2022/03/20 10:58:49;;;;;;;2.40;2.30;;;16.90;99.90;;;;;;5026787;28;20205;-66
2022/03/20 11:01:17;;;;;;;2.92;2.72;;;16.90;99.90;;;;;;5027553;28;20250;-68
2022/03/20 11:03:46;;;;;;;2.88;2.60;;;17.00;99.90;;;;;;5027426;28;20259;-68
2022/03/20 11:06:15;;;;;;;2.50;2.40;;;17.10;99.90;;;;;;5027528;28;20310;-67
2022/03/20 11:08:42;;;;;;;2.60;2.50;;;17.30;99.90;;;;;;5034880;28;20217;-67
2022/03/20 11:11:11;;;;;;;2.40;2.30;;;17.40;99.90;;;;;;5028172;28;20232;-69
2022/03/20 11:13:46;;;;;;;2.53;2.33;;;17.50;99.90;;;;;;5019218;28;20232;-68
2022/03/20 11:16:14;;;;;;;2.28;2.17;;;17.70;99.90;;;;;;5016309;28;20244;-69
2022/03/20 11:18:44;;;;;;;2.20;2.10;;;17.70;99.90;;;;;;5025312;28;20201;-69
2022/03/20 11:21:11;;;;;;;2.42;2.28;;;17.80;99.90;;;;;;5017196;28;20208;-68
2022/03/20 11:23:39;;;;;;;2.40;2.25;;;17.80;99.90;;;;;;5024499;22;21009;-63
2022/03/20 11:26:09;;;;;;;2.85;2.65;;;17.70;99.90;;;;;;5020173;28;20315;-64
2022/03/20 11:28:46;;;;;;;2.25;2.15;;;17.70;99.90;;;;;;5022035;28;20205;-65
2022/03/20 11:31:14;;;;;;;2.20;2.10;;;17.80;99.90;;;;;;5020529;28;20226;-65
2022/03/20 11:33:44;;;;;;;2.53;2.33;;;17.90;99.90;;;;;;5027063;28;20304;-63
2022/03/20 11:36:12;;;;;;;2.38;2.28;;;17.90;99.90;;;;;;5025071;28;20209;-66
2022/03/20 11:38:41;;;;;;;2.37;2.27;;;18.00;99.90;;;;;;5028088;28;20204;-64
2022/03/20 11:41:12;;;;;;;2.13;2.03;;;18.10;99.90;;;;;;5027755;28;20208;-64
2022/03/20 11:43:43;;;;;;;2.15;2.05;;;18.10;99.90;;;;;;5028344;28;20268;-64
2022/03/20 11:46:21;;;;;;;2.30;2.20;;;18.20;99.90;;;;;;5039174;28;20228;-66
2022/03/20 11:49:22;;;;;;;2.13;2.03;;;18.20;99.90;;;;;;5031676;28;20193;-64
2022/03/20 11:51:57;;;;;;;2.20;2.10;;;18.20;99.90;;;;;;5034650;28;20204;-65
2022/03/20 11:54:32;;;;;;;2.00;1.90;;;18.20;99.90;;;;;;5035857;28;20237;-65
2022/03/20 11:57:00;;;;;;;2.10;2.00;;;18.20;99.90;;;;;;5034758;28;20239;-64
2022/03/20 11:59:46;;;;;;;2.10;2.00;;;18.10;99.90;;;;;;5031726;28;20207;-66
2022/03/20 12:02:16;;;;;;;2.00;1.90;;;18.20;99.90;;;;;;5027288;28;20728;-64
2022/03/20 12:05:03;;;;;;;1.98;1.88;;;18.40;99.90;;;;;;5029323;28;20235;-65
2022/03/20 12:07:37;;;;;;;2.20;2.00;;;18.60;99.90;;;;;;5025916;28;20228;-66
2022/03/20 12:10:16;;;;;;;2.10;2.00;;;18.60;99.90;;;;;;5019685;28;20288;-65
2022/03/20 12:13:05;;;;;;;1.90;1.80;;;18.60;99.90;;;;;;5024959;28;21097;-65
2022/03/20 12:15:33;;;;;;;2.05;1.95;;;18.60;99.90;;;;;;5027592;28;20185;-66
2022/03/20 12:18:06;;;;;;;1.90;1.80;;;18.60;99.90;;;;;;5038158;28;20216;-62
2022/03/20 12:21:05;;;;;;;2.22;2.03;;;18.80;99.90;;;;;;5009695;28;20201;-64
2022/03/20 12:23:43;;;;;;;2.20;2.10;;;18.80;99.90;;;;;;4999280;28;20238;-62
2022/03/20 12:26:34;;;;;;;1.98;1.88;;;18.90;99.90;;;;;;4998139;28;20229;-63
2022/03/20 12:29:29;;;;;;;2.10;1.90;;;18.90;99.90;;;;;;4996018;28;20194;-62
2022/03/20 12:31:58;;;;;;;2.38;2.00;;;19.00;99.90;;;;;;4994869;28;20209;-62
2022/03/20 12:34:28;;;;;;;2.25;2.15;;;19.00;99.90;;;;;;4994728;28;20297;-63
2022/03/20 12:36:55;;;;;;;1.90;1.80;;;19.10;99.90;;;;;;5003631;28;20209;-63
2022/03/20 12:39:52;;;;;;;2.17;2.08;;;19.00;99.90;;;;;;5021616;28;20204;-63
2022/03/20 12:42:19;;;;;;;2.10;2.00;;;19.00;99.90;;;;;;5021001;28;20274;-63
2022/03/20 12:44:51;;;;;;;2.00;1.90;;;19.00;99.90;;;;;;5025518;28;20262;-62
2022/03/20 12:47:18;;;;;;;2.13;2.00;;;19.00;99.90;;;;;;5015812;28;20235;-62
2022/03/20 12:49:52;;;;;;;2.00;1.90;;;19.10;99.90;;;;;;5019508;28;20205;-62
2022/03/20 12:52:20;;;;;;;1.98;1.88;;;19.20;99.90;;;;;;5021844;28;20262;-63
2022/03/20 12:54:54;;;;;;;2.00;1.80;;;19.20;99.90;;;;;;5019070;28;20677;-63
2022/03/20 12:57:38;;;;;;;2.10;2.00;;;19.30;99.90;;;;;;5023525;28;20225;-62
2022/03/20 13:00:10;;;;;;;1.95;1.85;;;19.20;99.90;;;;;;5024108;28;20614;-64
2022/03/20 13:02:59;;;;;;;2.20;2.00;;;19.30;99.90;;;;;;5018538;28;20695;-62
2022/03/20 13:05:33;;;;;;;1.92;1.83;;;19.30;99.90;;;;;;5024079;28;20251;-62
2022/03/20 13:08:00;;;;;;;1.88;1.77;;;19.40;99.90;;;;;;5022700;28;20259;-61
2022/03/20 13:10:33;;;;;;;1.70;1.60;;;19.50;99.90;;;;;;5023147;28;20223;-61
2022/03/20 13:13:02;;;;;;;2.35;2.00;;;19.50;99.90;;;;;;5017023;28;20770;-62
2022/03/20 13:15:30;;;;;;;1.90;1.80;;;19.50;99.90;;;;;;5009151;28;20236;-62
2022/03/20 13:17:57;;;;;;;1.60;1.60;;;19.50;99.90;;;;;;5014468;28;20698;-61
2022/03/20 13:20:27;;;;;;;1.70;1.60;;;19.60;99.90;;;;;;5014279;28;20212;-62
2022/03/20 13:22:55;;;;;;;2.65;1.77;;;19.60;99.90;;;;;;5013231;28;20714;-61
2022/03/20 13:25:23;;;;;;;1.77;1.58;;;19.80;99.90;;;;;;5014329;28;20244;-61
2022/03/20 13:27:51;;;;;;;1.85;1.75;;;19.80;99.90;;;;;;5024546;28;20223;-63
2022/03/20 13:30:20;;;;;;;2.30;1.70;;;19.80;99.90;;;;;;5025145;28;20201;-64
2022/03/20 13:32:58;;;;;;;2.20;2.05;;;19.90;99.90;;;;;;5024578;28;20257;-63
2022/03/20 13:35:27;;;;;;;2.15;1.95;;;19.80;99.90;;;;;;5018216;28;20237;-62